Time;durP1;ratioP1;P1;durP2;ratioP2;P2;SDS_P1;SDS_P2;PMS_P1;PMS_P2;Temp;Humidity;BMP_temperature;BMP_pressure;BME280_temperature;BME280_humidity;BME280_pressure;Samples;Min_cycle;Max_cycle;Signal;HPM_P1;HPM_P2
2023/07/19 00:01:51;;;;;;;10.75;5.60;;;;;;;-140.66;100.00;55571.53;5116970;28;20119;-75
2023/07/19 00:04:36;;;;;;;12.50;5.40;;;;;;;-140.66;100.00;55571.53;5102656;28;20481;-76
2023/07/19 00:07:22;;;;;;;6.82;5.45;;;;;;;-140.66;100.00;55571.53;5117531;28;20337;-76
2023/07/19 00:10:08;;;;;;;12.05;6.10;;;;;;;-140.66;100.00;55571.53;5116839;28;20031;-76
2023/07/19 00:12:54;;;;;;;12.85;6.20;;;;;;;-140.66;100.00;55571.53;5116371;28;20019;-76
2023/07/19 00:15:39;;;;;;;11.23;6.03;;;;;;;-140.66;100.00;55571.53;5102071;28;20100;-74
2023/07/19 00:18:25;;;;;;;8.02;5.63;;;;;;;-140.66;100.00;55571.53;5117090;28;20020;-77
2023/07/19 00:21:11;;;;;;;14.38;6.55;;;;;;;-140.66;100.00;55571.53;5116044;28;20055;-75
2023/07/19 00:23:57;;;;;;;8.15;5.30;;;;;;;-140.66;100.00;55571.53;5116898;28;20046;-75
2023/07/19 00:26:45;;;;;;;7.82;5.93;;;;;;;-140.66;100.00;55571.53;5117170;28;20039;-74
2023/07/19 00:29:31;;;;;;;9.25;6.40;;;;;;;-140.66;100.00;55571.53;5117036;28;20435;-76
2023/07/19 00:32:17;;;;;;;12.95;6.68;;;;;;;-140.66;100.00;55571.53;5116604;28;20036;-75
2023/07/19 00:35:03;;;;;;;13.90;6.25;;;;;;;-140.66;100.00;55571.53;5100815;28;20028;-75
2023/07/19 00:37:49;;;;;;;9.23;6.53;;;;;;;-140.66;100.00;55571.53;5116936;28;20082;-75
2023/07/19 00:40:35;;;;;;;8.70;6.30;;;;;;;-140.66;100.00;55571.53;5115793;28;20031;-75
2023/07/19 00:43:21;;;;;;;11.40;6.88;;;;;;;-140.66;100.00;55571.53;5117415;28;20024;-76
2023/07/19 00:46:07;;;;;;;9.65;6.80;;;;;;;-140.66;100.00;55571.53;5115620;28;20402;-76
2023/07/19 00:48:53;;;;;;;11.73;7.50;;;;;;;-140.66;100.00;55571.53;5115826;28;20355;-75
2023/07/19 00:51:40;;;;;;;10.00;6.28;;;;;;;-140.66;100.00;55571.53;5116620;28;20360;-75
2023/07/19 00:54:26;;;;;;;9.75;6.68;;;;;;;-140.66;100.00;55571.53;5116665;28;20123;-75
2023/07/19 00:57:12;;;;;;;13.63;6.68;;;;;;;-140.66;100.00;55571.53;5115269;28;20028;-75
2023/07/19 00:59:59;;;;;;;11.38;6.93;;;;;;;-140.66;100.00;55571.53;5115591;28;20466;-75
2023/07/19 01:02:44;;;;;;;8.30;6.45;;;;;;;-140.66;100.00;55571.53;5101267;28;20019;-75
2023/07/19 01:05:30;;;;;;;10.75;7.00;;;;;;;-140.66;100.00;55571.53;5114906;28;20034;-75
2023/07/19 01:08:18;;;;;;;9.63;6.70;;;;;;;-140.66;100.00;55571.53;5115455;28;20066;-76
2023/07/19 01:11:03;;;;;;;11.43;6.88;;;;;;;-140.66;100.00;55571.53;5101267;28;20059;-76
2023/07/19 01:13:53;;;;;;;8.43;6.13;;;;;;;-140.66;100.00;55571.53;5115779;28;20414;-75
2023/07/19 01:16:39;;;;;;;12.30;6.38;;;;;;;-140.66;100.00;55571.53;5115426;28;20038;-75
2023/07/19 01:19:25;;;;;;;10.43;6.18;;;;;;;-140.66;100.00;55571.53;5100873;28;20046;-75
2023/07/19 01:22:12;;;;;;;9.60;6.20;;;;;;;-140.66;100.00;55571.53;5101313;28;20031;-76
2023/07/19 01:24:57;;;;;;;10.00;6.38;;;;;;;-140.66;100.00;55571.53;5115941;28;20051;-76
2023/07/19 01:27:43;;;;;;;10.70;6.18;;;;;;;-140.66;100.00;55571.53;5116125;28;20114;-75
2023/07/19 01:30:29;;;;;;;9.90;6.20;;;;;;;-140.66;100.00;55571.53;5115373;28;20024;-76
2023/07/19 01:33:15;;;;;;;9.52;6.55;;;;;;;-140.66;100.00;55571.53;5116036;28;20446;-76
2023/07/19 01:36:01;;;;;;;13.68;6.38;;;;;;;-140.66;100.00;55571.53;5114466;28;20347;-75
2023/07/19 01:38:46;;;;;;;10.95;6.75;;;;;;;-140.66;100.00;55571.53;5100293;28;20028;-75
2023/07/19 01:41:32;;;;;;;10.10;6.32;;;;;;;-140.66;100.00;55571.53;5115452;28;20451;-74
2023/07/19 01:44:18;;;;;;;9.88;5.72;;;;;;;-140.66;100.00;55571.53;5115477;28;20382;-75
2023/07/19 01:47:04;;;;;;;10.50;6.30;;;;;;;-140.66;100.00;55571.53;5114687;28;20061;-75
2023/07/19 01:49:49;;;;;;;9.60;6.50;;;;;;;-140.66;100.00;55571.53;5099544;28;20372;-76
2023/07/19 01:52:35;;;;;;;13.55;6.90;;;;;;;-140.66;100.00;55571.53;5114964;28;20024;-75
2023/07/19 01:55:21;;;;;;;9.35;6.50;;;;;;;-140.66;100.00;55571.53;5102391;28;20024;-76
2023/07/19 01:58:10;;;;;;;11.68;6.80;;;;;;;-140.66;100.00;55571.53;5116041;28;20329;-75
2023/07/19 02:00:55;;;;;;;9.43;6.15;;;;;;;-140.66;100.00;55571.53;5098738;28;20081;-75
2023/07/19 02:03:41;;;;;;;7.78;6.57;;;;;;;-140.66;100.00;55571.53;5115318;28;20034;-76
2023/07/19 02:06:27;;;;;;;10.20;6.25;;;;;;;-140.66;100.00;55571.53;5116119;28;20031;-76
2023/07/19 02:09:13;;;;;;;10.32;6.13;;;;;;;-140.66;100.00;55571.53;5100065;28;20089;-75
2023/07/19 02:11:58;;;;;;;14.88;6.28;;;;;;;-140.66;100.00;55571.53;5100192;28;20038;-75
2023/07/19 02:14:44;;;;;;;9.43;6.15;;;;;;;-140.66;100.00;55571.53;5115046;28;20031;-75
2023/07/19 02:17:30;;;;;;;15.85;6.70;;;;;;;-140.66;100.00;55571.53;5116681;28;20020;-75
2023/07/19 02:20:19;;;;;;;9.60;6.57;;;;;;;-140.66;100.00;55571.53;5115543;28;20399;-74
2023/07/19 02:23:05;;;;;;;11.40;6.00;;;;;;;-140.66;100.00;55571.53;5101533;28;20340;-76
2023/07/19 02:25:51;;;;;;;11.80;6.65;;;;;;;-140.66;100.00;55571.53;5102441;28;20019;-73
2023/07/19 02:28:37;;;;;;;10.50;6.28;;;;;;;-140.66;100.00;55571.53;5114977;28;20106;-76
2023/07/19 02:31:23;;;;;;;12.10;6.88;;;;;;;-140.66;100.00;55571.53;5114567;28;20032;-75
2023/07/19 02:34:09;;;;;;;10.07;7.05;;;;;;;-140.66;100.00;55571.53;5101004;28;20070;-75
2023/07/19 02:36:57;;;;;;;14.75;8.15;;;;;;;-140.66;100.00;55571.53;5114818;28;20420;-76
2023/07/19 02:39:42;;;;;;;12.55;9.50;;;;;;;-140.66;100.00;55571.53;5114556;28;20027;-75
2023/07/19 02:42:28;;;;;;;16.58;9.73;;;;;;;-140.66;100.00;55571.53;5114338;28;20055;-76
2023/07/19 02:45:14;;;;;;;17.00;10.52;;;;;;;-140.66;100.00;55571.53;5114429;28;20027;-76
2023/07/19 02:48:00;;;;;;;19.70;10.88;;;;;;;-140.66;100.00;55571.53;5114907;28;20028;-74
2023/07/19 02:50:46;;;;;;;15.25;10.50;;;;;;;-140.66;100.00;55571.53;5114478;28;20027;-75
2023/07/19 02:53:32;;;;;;;18.15;10.90;;;;;;;-140.66;100.00;55571.53;5114916;28;20024;-76
2023/07/19 02:56:18;;;;;;;19.85;9.52;;;;;;;-140.66;100.00;55571.53;5114269;28;20035;-75
2023/07/19 02:59:05;;;;;;;12.65;8.55;;;;;;;-140.66;100.00;55571.53;5099806;28;20027;-76
2023/07/19 03:01:50;;;;;;;11.43;8.25;;;;;;;-140.66;100.00;55571.53;5113735;28;20027;-75
2023/07/19 03:04:36;;;;;;;13.77;8.30;;;;;;;-140.66;100.00;55571.53;5113935;28;20027;-75
2023/07/19 03:07:23;;;;;;;11.95;8.27;;;;;;;-140.66;100.00;55571.53;5114089;28;20099;-75
2023/07/19 03:10:09;;;;;;;11.15;8.27;;;;;;;-140.66;100.00;55571.53;5114126;28;20038;-76
2023/07/19 03:12:55;;;;;;;13.00;8.25;;;;;;;-140.66;100.00;55571.53;5100114;28;20057;-76
2023/07/19 03:15:45;;;;;;;14.93;8.35;;;;;;;-140.66;100.00;55571.53;5115221;28;20095;-76
2023/07/19 03:18:31;;;;;;;10.55;7.18;;;;;;;-140.66;100.00;55571.53;5099912;28;20039;-76
2023/07/19 03:21:18;;;;;;;13.38;7.72;;;;;;;-140.66;100.00;55571.53;5116234;28;20130;-74
2023/07/19 03:24:04;;;;;;;18.25;8.63;;;;;;;-140.66;100.00;55571.53;5118240;28;20451;-76
2023/07/19 03:26:50;;;;;;;15.93;7.93;;;;;;;-140.66;100.00;55571.53;5116020;28;20366;-75
2023/07/19 03:29:36;;;;;;;16.75;7.95;;;;;;;-140.66;100.00;55571.53;5117030;28;20024;-76
2023/07/19 03:32:22;;;;;;;10.60;7.90;;;;;;;-140.66;100.00;55571.53;5102856;28;20508;-75
2023/07/19 03:35:08;;;;;;;12.45;7.80;;;;;;;-140.66;100.00;55571.53;5102663;28;20055;-74
2023/07/19 03:37:53;;;;;;;14.65;7.85;;;;;;;-140.66;100.00;55571.53;5103842;28;20019;-75
2023/07/19 03:40:39;;;;;;;10.70;8.15;;;;;;;-140.66;100.00;55571.53;5103170;28;20024;-75
2023/07/19 03:43:25;;;;;;;11.35;7.30;;;;;;;-140.66;100.00;55571.53;5117647;28;20031;-74
2023/07/19 03:46:11;;;;;;;13.15;7.50;;;;;;;-140.66;100.00;55571.53;5102769;28;20027;-75
2023/07/19 03:48:57;;;;;;;11.13;7.80;;;;;;;-140.66;100.00;55571.53;5116986;28;20111;-75
2023/07/19 03:51:43;;;;;;;11.10;8.23;;;;;;;-140.66;100.00;55571.53;5117676;28;20027;-75
2023/07/19 03:54:29;;;;;;;13.57;9.43;;;;;;;-140.66;100.00;55571.53;5100929;28;20031;-75
2023/07/19 03:57:14;;;;;;;19.02;8.82;;;;;;;-140.66;100.00;55571.53;5115698;28;20020;-76
2023/07/19 04:00:00;;;;;;;18.35;9.55;;;;;;;-140.66;100.00;55571.53;5102791;28;20027;-74
2023/07/19 04:02:46;;;;;;;12.93;8.85;;;;;;;-140.66;100.00;55571.53;5116967;28;20023;-76
2023/07/19 04:05:32;;;;;;;10.32;8.10;;;;;;;-140.66;100.00;55571.53;5117000;28;20024;-75
2023/07/19 04:08:17;;;;;;;16.45;8.90;;;;;;;-140.66;100.00;55571.53;5116407;28;20081;-76
2023/07/19 04:11:03;;;;;;;14.80;9.10;;;;;;;-140.66;100.00;55571.53;5114827;28;20024;-76
2023/07/19 04:13:50;;;;;;;13.57;8.18;;;;;;;-140.66;100.00;55571.53;5102876;28;20054;-76
2023/07/19 04:16:36;;;;;;;12.75;8.68;;;;;;;-140.66;100.00;55571.53;5117481;28;20114;-75
2023/07/19 04:19:22;;;;;;;14.10;8.38;;;;;;;-140.66;100.00;55571.53;5101685;28;20027;-75
2023/07/19 04:22:08;;;;;;;14.05;8.07;;;;;;;-140.66;100.00;55571.53;5102737;28;20359;-75
2023/07/19 04:24:54;;;;;;;11.10;8.05;;;;;;;-140.66;100.00;55571.53;5102632;28;20124;-74
2023/07/19 04:27:40;;;;;;;10.45;8.10;;;;;;;-140.66;100.00;55571.53;5116049;28;20024;-74
2023/07/19 04:30:26;;;;;;;16.25;8.43;;;;;;;-140.66;100.00;55571.53;5116015;28;20060;-75
2023/07/19 04:33:12;;;;;;;11.63;7.75;;;;;;;-140.66;100.00;55571.53;5116965;28;20038;-75
2023/07/19 04:35:58;;;;;;;11.07;8.30;;;;;;;-140.66;100.00;55571.53;5101300;28;20038;-76
2023/07/19 04:38:43;;;;;;;12.48;8.02;;;;;;;-140.66;100.00;55571.53;5116053;28;20031;-75
2023/07/19 04:41:29;;;;;;;14.18;7.90;;;;;;;-140.66;100.00;55571.53;5101843;28;20055;-75
2023/07/19 04:44:15;;;;;;;12.95;7.68;;;;;;;-140.66;100.00;55571.53;5101476;28;20023;-75
2023/07/19 04:47:01;;;;;;;14.85;8.05;;;;;;;-140.66;100.00;55571.53;5115599;28;20313;-75
2023/07/19 04:49:47;;;;;;;14.95;7.38;;;;;;;-140.66;100.00;55571.53;5101501;28;20035;-75
2023/07/19 04:52:33;;;;;;;17.83;8.63;;;;;;;-140.66;100.00;55571.53;5116281;28;20035;-75
2023/07/19 04:55:18;;;;;;;13.88;7.53;;;;;;;-140.66;100.00;55571.53;5116119;28;20106;-75
2023/07/19 04:58:04;;;;;;;22.00;8.30;;;;;;;-140.66;100.00;55571.53;5115132;28;20021;-76
2023/07/19 05:00:50;;;;;;;19.23;8.13;;;;;;;-140.66;100.00;55571.53;5102251;28;20341;-75
2023/07/19 05:03:37;;;;;;;10.70;7.50;;;;;;;-140.66;100.00;55571.53;5101242;28;20019;-75
2023/07/19 05:06:23;;;;;;;19.13;7.88;;;;;;;-140.66;100.00;55571.53;5100819;28;20035;-76
2023/07/19 05:09:09;;;;;;;12.02;7.55;;;;;;;-140.66;100.00;55571.53;5116292;28;20031;-75
2023/07/19 05:11:54;;;;;;;15.52;7.38;;;;;;;-140.66;100.00;55571.53;5102465;28;20043;-75
2023/07/19 05:14:41;;;;;;;11.48;7.38;;;;;;;-140.66;100.00;55571.53;5115230;28;20062;-75
2023/07/19 05:17:27;;;;;;;14.48;8.30;;;;;;;-140.66;100.00;55571.53;5115002;28;20024;-76
2023/07/19 05:20:13;;;;;;;32.30;8.07;;;;;;;-140.66;100.00;55571.53;5115104;28;20039;-76
2023/07/19 05:22:58;;;;;;;24.13;8.32;;;;;;;-140.66;100.00;55571.53;5114981;28;20034;-75
2023/07/19 05:25:46;;;;;;;18.50;8.85;;;;;;;-140.66;100.00;55571.53;5101126;28;20027;-76
2023/07/19 05:28:31;;;;;;;17.67;8.85;;;;;;;-140.66;100.00;55571.53;5114999;28;20032;-76
2023/07/19 05:31:18;;;;;;;18.40;8.77;;;;;;;-140.66;100.00;55571.53;5101255;28;20038;-75
2023/07/19 05:34:03;;;;;;;21.27;9.32;;;;;;;-140.66;100.00;55571.53;5115200;28;20058;-74
2023/07/19 05:36:49;;;;;;;12.98;8.68;;;;;;;-140.66;100.00;55571.53;5115289;28;20027;-76
2023/07/19 05:39:35;;;;;;;14.52;8.60;;;;;;;-140.66;100.00;55571.53;5114878;28;20031;-76
2023/07/19 05:42:21;;;;;;;14.15;7.85;;;;;;;-140.66;100.00;55571.53;5115036;28;20088;-76
2023/07/19 05:45:08;;;;;;;17.55;8.68;;;;;;;-140.66;100.00;55571.53;5114479;28;20089;-76
2023/07/19 05:47:54;;;;;;;13.43;7.53;;;;;;;-140.66;100.00;55571.53;5115078;28;20028;-76
2023/07/19 05:50:39;;;;;;;16.05;9.43;;;;;;;-140.66;100.00;55571.53;5115615;28;20035;-76
2023/07/19 05:53:25;;;;;;;17.40;8.60;;;;;;;-140.66;100.00;55571.53;5114425;28;20443;-75
2023/07/19 05:56:11;;;;;;;16.20;8.77;;;;;;;-140.66;100.00;55571.53;5114451;28;20479;-75
2023/07/19 05:58:57;;;;;;;18.27;9.25;;;;;;;-140.66;100.00;55571.53;5115861;28;20034;-75
2023/07/19 06:01:43;;;;;;;13.20;8.70;;;;;;;-140.66;100.00;55571.53;5100391;28;20439;-76
2023/07/19 06:04:29;;;;;;;13.32;8.10;;;;;;;-140.66;100.00;55571.53;5114712;28;20104;-76
2023/07/19 06:07:15;;;;;;;11.38;7.22;;;;;;;-140.66;100.00;55571.53;5100684;28;20106;-74
2023/07/19 06:10:01;;;;;;;10.68;7.07;;;;;;;-140.66;100.00;55571.53;5115921;28;20036;-75
2023/07/19 06:12:47;;;;;;;10.93;6.50;;;;;;;-140.66;100.00;55571.53;5099788;28;20080;-75
2023/07/19 06:15:33;;;;;;;10.02;6.95;;;;;;;-140.66;100.00;55571.53;5114784;28;20035;-75
2023/07/19 06:18:19;;;;;;;12.23;6.90;;;;;;;-140.66;100.00;55571.53;5098856;28;20023;-74
2023/07/19 06:21:05;;;;;;;12.93;7.18;;;;;;;-140.66;100.00;55571.53;5114334;28;20104;-74
2023/07/19 06:23:51;;;;;;;16.67;6.88;;;;;;;-140.66;100.00;55571.53;5114208;28;20054;-75
2023/07/19 06:26:36;;;;;;;9.20;6.05;;;;;;;-140.66;100.00;55571.53;5115022;28;20054;-75
2023/07/19 06:29:23;;;;;;;10.20;6.68;;;;;;;-140.66;100.00;55571.53;5115173;28;20134;-76
2023/07/19 06:32:08;;;;;;;11.27;6.50;;;;;;;-140.66;100.00;55571.53;5114024;28;20399;-75
2023/07/19 06:34:54;;;;;;;14.55;6.68;;;;;;;-140.66;100.00;55571.53;5114253;28;20027;-75
2023/07/19 06:37:40;;;;;;;12.52;7.20;;;;;;;-140.66;100.00;55571.53;5115049;28;20032;-74
2023/07/19 06:40:26;;;;;;;11.77;6.90;;;;;;;-140.66;100.00;55571.53;5114276;28;20091;-76
2023/07/19 06:43:12;;;;;;;10.18;6.93;;;;;;;-140.66;100.00;55571.53;5113888;28;20051;-75
2023/07/19 06:45:58;;;;;;;11.13;6.55;;;;;;;-140.66;100.00;55571.53;5114573;28;20016;-75
2023/07/19 06:48:43;;;;;;;9.23;6.45;;;;;;;-140.66;100.00;55571.53;5099521;28;20023;-75
2023/07/19 06:51:30;;;;;;;10.95;6.97;;;;;;;-140.66;100.00;55571.53;5114136;28;20165;-76
2023/07/19 06:54:15;;;;;;;9.50;6.32;;;;;;;-140.66;100.00;55571.53;5113950;28;20463;-75
2023/07/19 06:57:01;;;;;;;9.77;6.05;;;;;;;-140.66;100.00;55571.53;5117667;28;20028;-75
2023/07/19 06:59:49;;;;;;;6.75;5.53;;;;;;;-140.66;100.00;55571.53;5117889;28;20031;-76
2023/07/19 07:02:35;;;;;;;7.55;5.70;;;;;;;-140.66;100.00;55571.53;5119167;28;20124;-75
2023/07/19 07:05:21;;;;;;;8.80;6.70;;;;;;;-140.66;100.00;55571.53;5118795;28;20027;-76
2023/07/19 07:08:07;;;;;;;13.02;7.05;;;;;;;-140.66;100.00;55571.53;5103943;28;20027;-75
2023/07/19 07:10:53;;;;;;;11.80;6.78;;;;;;;-140.66;100.00;55571.53;5117795;28;20443;-75
2023/07/19 07:13:39;;;;;;;13.27;7.00;;;;;;;-140.66;100.00;55571.53;5117882;28;20023;-75
2023/07/19 07:16:25;;;;;;;12.35;7.28;;;;;;;-140.66;100.00;55571.53;5116962;28;20038;-75
2023/07/19 07:19:10;;;;;;;22.38;7.53;;;;;;;-140.66;100.00;55571.53;5117390;28;20031;-75
2023/07/19 07:21:56;;;;;;;8.07;7.07;;;;;;;-140.66;100.00;55571.53;5118183;28;20047;-75
2023/07/19 07:24:42;;;;;;;15.75;7.80;;;;;;;-140.66;100.00;55571.53;5116299;28;20096;-74
2023/07/19 07:27:28;;;;;;;17.77;7.80;;;;;;;-140.66;100.00;55571.53;5116608;28;20053;-75
2023/07/19 07:30:14;;;;;;;12.48;6.93;;;;;;;-140.66;100.00;55571.53;5117693;28;20027;-74
2023/07/19 07:32:59;;;;;;;14.65;6.93;;;;;;;-140.66;100.00;55571.53;5118117;28;20019;-75
2023/07/19 07:35:46;;;;;;;12.00;7.20;;;;;;;-140.66;100.00;55571.53;5103775;28;20027;-75
2023/07/19 07:38:33;;;;;;;10.60;7.15;;;;;;;-140.66;100.00;55571.53;5116822;28;20099;-75
2023/07/19 07:41:18;;;;;;;10.57;6.28;;;;;;;-140.66;100.00;55571.53;5118131;28;20042;-75
2023/07/19 07:44:04;;;;;;;12.88;6.75;;;;;;;-140.66;100.00;55571.53;5103197;28;20028;-75
2023/07/19 07:46:50;;;;;;;11.40;7.07;;;;;;;-140.66;100.00;55571.53;5102258;28;20030;-75
2023/07/19 07:49:36;;;;;;;11.32;7.10;;;;;;;-140.66;100.00;55571.53;5117583;28;20038;-75
2023/07/19 07:52:21;;;;;;;11.43;7.00;;;;;;;-140.66;100.00;55571.53;5102063;28;20436;-75
2023/07/19 07:55:07;;;;;;;9.95;6.63;;;;;;;-140.66;100.00;55571.53;5117644;28;20051;-75
2023/07/19 07:57:53;;;;;;;10.13;6.78;;;;;;;-140.66;100.00;55571.53;5116351;28;20027;-74
2023/07/19 08:00:39;;;;;;;15.57;7.60;;;;;;;-140.66;100.00;55571.53;5117971;28;20023;-75
2023/07/19 08:03:25;;;;;;;13.75;7.93;;;;;;;-140.66;100.00;55571.53;5102087;28;20455;-75
2023/07/19 08:06:11;;;;;;;11.07;6.70;;;;;;;-140.66;100.00;55571.53;5101073;28;20359;-76
2023/07/19 08:08:57;;;;;;;9.23;6.13;;;;;;;-140.66;100.00;55571.53;5102164;28;20027;-76
2023/07/19 08:11:42;;;;;;;8.13;6.30;;;;;;;-140.66;100.00;55571.53;5103173;28;20038;-75
2023/07/19 08:14:28;;;;;;;9.48;6.63;;;;;;;-140.66;100.00;55571.53;5116814;28;20028;-76
2023/07/19 08:17:17;;;;;;;6.80;6.10;;;;;;;-140.66;100.00;55571.53;5116828;28;20447;-75
2023/07/19 08:20:05;;;;;;;8.52;6.35;;;;;;;-140.66;100.00;55571.53;5103143;28;20071;-75
2023/07/19 08:22:51;;;;;;;12.90;6.93;;;;;;;-140.66;100.00;55571.53;5103272;28;20042;-75
2023/07/19 08:25:37;;;;;;;9.25;6.40;;;;;;;-140.66;100.00;55571.53;5116062;28;20392;-75
2023/07/19 08:28:24;;;;;;;11.43;6.93;;;;;;;-140.66;100.00;55571.53;5116918;28;20037;-76
2023/07/19 08:31:10;;;;;;;10.45;6.18;;;;;;;-140.66;100.00;55571.53;5117286;28;20035;-76
2023/07/19 08:33:56;;;;;;;7.10;5.85;;;;;;;-140.66;100.00;55571.53;5115462;28;20435;-75
2023/07/19 08:36:42;;;;;;;9.63;6.10;;;;;;;-140.66;100.00;55571.53;5117269;28;20071;-75
2023/07/19 08:39:28;;;;;;;7.78;6.25;;;;;;;-140.66;100.00;55571.53;5116131;28;20450;-75
2023/07/19 08:42:14;;;;;;;12.95;6.30;;;;;;;-140.66;100.00;55571.53;5116570;28;20039;-75
2023/07/19 08:44:59;;;;;;;10.75;6.50;;;;;;;-140.66;100.00;55571.53;5115678;28;20080;-75
2023/07/19 08:47:47;;;;;;;11.18;6.35;;;;;;;-140.66;100.00;55571.53;5115300;28;20435;-75
2023/07/19 08:50:35;;;;;;;11.23;6.30;;;;;;;-140.66;100.00;55571.53;5115382;28;20035;-75
2023/07/19 08:53:23;;;;;;;19.48;6.43;;;;;;;-140.66;100.00;55571.53;5116415;28;20024;-76
2023/07/19 08:56:12;;;;;;;7.13;5.93;;;;;;;-140.66;100.00;55571.53;5115709;28;20429;-75
2023/07/19 08:58:58;;;;;;;9.30;6.43;;;;;;;-140.66;100.00;55571.53;5116046;28;20040;-76
2023/07/19 09:01:44;;;;;;;7.53;6.20;;;;;;;-140.66;100.00;55571.53;5115628;28;20070;-75
2023/07/19 09:04:32;;;;;;;8.07;5.80;;;;;;;-140.66;100.00;55571.53;5101677;28;20024;-76
2023/07/19 09:07:18;;;;;;;13.27;6.45;;;;;;;-140.66;100.00;55571.53;5116015;28;20533;-76
2023/07/19 09:10:05;;;;;;;8.50;6.07;;;;;;;-140.66;100.00;55571.53;5114443;28;20028;-77
2023/07/19 09:12:51;;;;;;;6.97;5.68;;;;;;;-140.66;100.00;55571.53;5116551;28;20037;-76
2023/07/19 09:15:47;;;;;;;14.43;5.97;;;;;;;-140.66;100.00;55571.53;5100839;28;20035;-76
2023/07/19 09:18:35;;;;;;;18.63;5.93;;;;;;;-140.66;100.00;55571.53;5099706;28;20032;-74
2023/07/19 09:21:32;;;;;;;6.97;5.55;;;;;;;-140.66;100.00;55571.53;5099739;28;20050;-74
2023/07/19 09:24:18;;;;;;;7.05;5.95;;;;;;;-140.66;100.00;55571.53;5099684;28;20028;-74
2023/07/19 09:27:04;;;;;;;10.10;6.30;;;;;;;-140.66;100.00;55571.53;5115151;28;20340;-73
2023/07/19 09:29:50;;;;;;;7.82;5.55;;;;;;;-140.66;100.00;55571.53;5100218;28;20039;-73
2023/07/19 09:32:37;;;;;;;7.60;5.70;;;;;;;-140.66;100.00;55571.53;5115710;28;20106;-74
2023/07/19 09:35:28;;;;;;;9.55;5.70;;;;;;;-140.66;100.00;55571.53;5114879;28;20032;-74
2023/07/19 09:38:14;;;;;;;7.38;5.55;;;;;;;-140.66;100.00;55571.53;5115640;28;20024;-72
2023/07/19 09:41:00;;;;;;;6.00;5.00;;;;;;;-140.66;100.00;55571.53;5114505;28;20030;-75
2023/07/19 09:43:47;;;;;;;9.10;5.65;;;;;;;-140.66;100.00;55571.53;5115775;28;20024;-71
2023/07/19 09:46:34;;;;;;;9.32;4.97;;;;;;;-140.66;100.00;55571.53;5116733;28;20028;-73
2023/07/19 09:49:20;;;;;;;10.18;5.63;;;;;;;-140.66;100.00;55571.53;5114762;28;20031;-73
2023/07/19 09:52:06;;;;;;;10.00;5.10;;;;;;;-140.66;100.00;55571.53;5115770;28;20042;-72
2023/07/19 09:54:53;;;;;;;6.97;5.32;;;;;;;-140.66;100.00;55571.53;5114199;28;20032;-73
2023/07/19 09:57:46;;;;;;;7.88;5.25;;;;;;;-140.66;100.00;55571.53;5115061;28;20038;-73
2023/07/19 10:00:33;;;;;;;6.72;4.75;;;;;;;-140.66;100.00;55571.53;5114169;28;20074;-74
2023/07/19 10:03:20;;;;;;;7.15;4.97;;;;;;;-140.66;100.00;55571.53;5114700;28;20341;-74
2023/07/19 10:06:06;;;;;;;8.73;4.88;;;;;;;-140.66;100.00;55571.53;5115175;28;20024;-73
2023/07/19 10:09:29;;;;;;;5.95;5.18;;;;;;;-140.66;100.00;55571.53;5100583;28;20137;-73
2023/07/19 10:12:18;;;;;;;7.05;4.90;;;;;;;-140.66;100.00;55571.53;5115186;28;20351;-73
2023/07/19 10:15:06;;;;;;;6.47;5.00;;;;;;;-140.66;100.00;55571.53;5114250;28;20027;-74
2023/07/19 10:17:58;;;;;;;6.80;4.57;;;;;;;-140.66;100.00;55571.53;5114858;28;20151;-74
2023/07/19 10:21:00;;;;;;;6.13;4.53;;;;;;;-140.66;100.00;55571.53;5113185;28;20039;-74
2023/07/19 10:23:45;;;;;;;5.00;4.43;;;;;;;-140.66;100.00;55571.53;5114783;28;20026;-73
2023/07/19 10:26:35;;;;;;;8.25;4.05;;;;;;;-140.66;100.00;55571.53;5113747;28;20015;-74
2023/07/19 10:29:24;;;;;;;7.43;4.50;;;;;;;-140.66;100.00;55571.53;5115151;28;20059;-74
2023/07/19 10:32:10;;;;;;;11.07;4.60;;;;;;;-140.66;100.00;55571.53;5119552;28;20363;-73
2023/07/19 10:34:56;;;;;;;11.15;4.95;;;;;;;-140.66;100.00;55571.53;5118433;28;20054;-74
2023/07/19 10:37:51;;;;;;;8.48;4.70;;;;;;;-140.66;100.00;55571.53;5117537;28;20027;-73
2023/07/19 10:40:37;;;;;;;7.95;4.25;;;;;;;-140.66;100.00;55571.53;5117932;28;20428;-74
2023/07/19 10:43:24;;;;;;;6.55;4.60;;;;;;;-140.66;100.00;55571.53;5118828;28;20077;-73
2023/07/19 10:46:10;;;;;;;6.22;4.70;;;;;;;-140.66;100.00;55571.53;5118261;28;20436;-74
2023/07/19 10:48:57;;;;;;;8.80;4.70;;;;;;;-140.66;100.00;55571.53;5117882;28;20028;-74
2023/07/19 10:51:58;;;;;;;7.72;4.68;;;;;;;-140.66;100.00;55571.53;5118413;28;20081;-73
2023/07/19 10:54:53;;;;;;;6.32;4.30;;;;;;;-140.66;100.00;55571.53;5119255;28;20020;-74
2023/07/19 10:57:39;;;;;;;11.68;4.90;;;;;;;-140.66;100.00;55571.53;5104190;28;20035;-73
2023/07/19 11:00:25;;;;;;;7.78;4.85;;;;;;;-140.66;100.00;55571.53;5103327;28;20476;-72
2023/07/19 11:03:14;;;;;;;7.63;5.10;;;;;;;-140.66;100.00;55571.53;5117884;28;20032;-73
2023/07/19 11:06:00;;;;;;;8.30;4.80;;;;;;;-140.66;100.00;55571.53;5117332;28;20030;-73
2023/07/19 11:08:46;;;;;;;7.78;5.18;;;;;;;-140.66;100.00;55571.53;5118084;28;20418;-75
2023/07/19 11:11:35;;;;;;;6.10;4.65;;;;;;;-140.66;100.00;55571.53;5117787;28;20028;-75
2023/07/19 11:14:32;;;;;;;12.73;5.50;;;;;;;-140.66;100.00;55571.53;5118909;28;20103;-73
2023/07/19 11:17:26;;;;;;;6.22;5.10;;;;;;;-140.66;100.00;55571.53;5118226;28;20054;-73
2023/07/19 11:20:12;;;;;;;8.55;4.95;;;;;;;-140.66;100.00;55571.53;5117662;28;20055;-73
2023/07/19 11:23:07;;;;;;;6.25;4.95;;;;;;;-140.66;100.00;55571.53;5117696;28;20103;-73
2023/07/19 11:26:07;;;;;;;8.45;4.90;;;;;;;-140.66;100.00;55571.53;5103337;28;20098;-73
2023/07/19 11:28:53;;;;;;;6.65;5.10;;;;;;;-140.66;100.00;55571.53;5115759;28;20028;-73
2023/07/19 11:31:38;;;;;;;7.85;5.00;;;;;;;-140.66;100.00;55571.53;5117361;28;20023;-74
2023/07/19 11:34:24;;;;;;;5.50;4.90;;;;;;;-140.66;100.00;55571.53;5118913;28;20042;-73
2023/07/19 11:37:19;;;;;;;11.50;5.00;;;;;;;-140.66;100.00;55571.53;5117782;28;20031;-73
2023/07/19 11:40:05;;;;;;;6.32;4.40;;;;;;;-140.66;100.00;55571.53;5118399;28;20042;-73
2023/07/19 11:42:58;;;;;;;7.50;4.68;;;;;;;-140.66;100.00;55571.53;5117390;28;20042;-74
2023/07/19 11:45:43;;;;;;;7.97;5.20;;;;;;;-140.66;100.00;55571.53;5118105;28;20038;-74
2023/07/19 11:48:29;;;;;;;8.45;4.95;;;;;;;-140.66;100.00;55571.53;5115677;28;20055;-74
2023/07/19 11:51:15;;;;;;;6.82;4.80;;;;;;;-140.66;100.00;55571.53;5101946;28;20089;-72
2023/07/19 11:54:01;;;;;;;8.93;4.80;;;;;;;-140.66;100.00;55571.53;5103975;28;20055;-73
2023/07/19 11:56:47;;;;;;;7.90;4.80;;;;;;;-140.66;100.00;55571.53;5117367;28;20023;-73
2023/07/19 11:59:32;;;;;;;9.30;5.00;;;;;;;-140.66;100.00;55571.53;5117248;28;20356;-75
2023/07/19 12:02:18;;;;;;;8.55;4.70;;;;;;;-140.66;100.00;55571.53;5117861;28;20461;-74
2023/07/19 12:05:05;;;;;;;6.72;4.85;;;;;;;-140.66;100.00;55571.53;5115824;28;20040;-73
2023/07/19 12:07:51;;;;;;;5.60;4.68;;;;;;;-140.66;100.00;55571.53;5119323;28;20035;-73
2023/07/19 12:10:37;;;;;;;11.73;5.05;;;;;;;-140.66;100.00;55571.53;5120119;28;20066;-74
2023/07/19 12:13:24;;;;;;;15.48;4.68;;;;;;;-140.66;100.00;55571.53;5120997;28;20051;-73
2023/07/19 12:16:10;;;;;;;6.28;4.45;;;;;;;-140.66;100.00;55571.53;5103071;28;20031;-72
2023/07/19 12:18:55;;;;;;;11.13;4.65;;;;;;;-140.66;100.00;55571.53;5118389;28;20433;-73
2023/07/19 12:21:41;;;;;;;6.32;4.82;;;;;;;-140.66;100.00;55571.53;5120068;28;20051;-72
2023/07/19 12:24:27;;;;;;;10.27;4.85;;;;;;;-140.66;100.00;55571.53;5106066;28;20111;-73
2023/07/19 12:27:16;;;;;;;6.63;4.55;;;;;;;-140.66;100.00;55571.53;5117780;28;20051;-72
2023/07/19 12:30:02;;;;;;;5.25;4.65;;;;;;;-140.66;100.00;55571.53;5104675;28;20035;-73
2023/07/19 12:32:48;;;;;;;6.05;4.80;;;;;;;-140.66;100.00;55571.53;5117507;28;20486;-73